sensor_id;sensor_type;location;lat;lon;timestamp;temperature;humidity
31653;DHT22;18261;53.648;9.910;2024-01-30T00:01:12;7.10;93.70
31653;DHT22;18261;53.648;9.910;2024-01-30T00:03:38;6.90;93.20
31653;DHT22;18261;53.648;9.910;2024-01-30T00:06:04;7.00;93.00
31653;DHT22;18261;53.648;9.910;2024-01-30T00:08:29;7.00;93.00
31653;DHT22;18261;53.648;9.910;2024-01-30T00:10:55;7.00;92.20
31653;DHT22;18261;53.648;9.910;2024-01-30T00:13:21;7.00;91.50
31653;DHT22;18261;53.648;9.910;2024-01-30T00:15:46;6.90;91.60
31653;DHT22;18261;53.648;9.910;2024-01-30T00:18:12;6.80;91.80
31653;DHT22;18261;53.648;9.910;2024-01-30T00:20:37;6.80;91.60
31653;DHT22;18261;53.648;9.910;2024-01-30T00:23:03;6.70;92.90
31653;DHT22;18261;53.648;9.910;2024-01-30T00:25:30;6.60;94.70
31653;DHT22;18261;53.648;9.910;2024-01-30T00:27:55;6.60;94.90
31653;DHT22;18261;53.648;9.910;2024-01-30T00:30:21;6.60;95.00
31653;DHT22;18261;53.648;9.910;2024-01-30T00:32:47;6.50;95.80
31653;DHT22;18261;53.648;9.910;2024-01-30T00:35:12;6.60;96.70
31653;DHT22;18261;53.648;9.910;2024-01-30T00:37:38;6.50;97.10
31653;DHT22;18261;53.648;9.910;2024-01-30T00:40:04;6.60;96.60
31653;DHT22;18261;53.648;9.910;2024-01-30T00:42:31;6.50;96.30
31653;DHT22;18261;53.648;9.910;2024-01-30T00:44:57;6.50;94.90
31653;DHT22;18261;53.648;9.910;2024-01-30T00:47:23;6.50;96.40
31653;DHT22;18261;53.648;9.910;2024-01-30T00:49:48;6.30;96.60
31653;DHT22;18261;53.648;9.910;2024-01-30T00:52:15;6.40;97.70
31653;DHT22;18261;53.648;9.910;2024-01-30T00:54:41;6.40;97.30
31653;DHT22;18261;53.648;9.910;2024-01-30T00:57:07;6.40;98.20
31653;DHT22;18261;53.648;9.910;2024-01-30T00:59:33;6.50;97.50
31653;DHT22;18261;53.648;9.910;2024-01-30T01:01:58;6.30;96.50
31653;DHT22;18261;53.648;9.910;2024-01-30T01:04:24;6.40;95.20
31653;DHT22;18261;53.648;9.910;2024-01-30T01:06:52;6.30;95.20
31653;DHT22;18261;53.648;9.910;2024-01-30T01:09:17;6.20;95.20
31653;DHT22;18261;53.648;9.910;2024-01-30T01:11:43;6.20;96.50
31653;DHT22;18261;53.648;9.910;2024-01-30T01:14:09;6.00;97.50
31653;DHT22;18261;53.648;9.910;2024-01-30T01:16:35;6.20;98.90
31653;DHT22;18261;53.648;9.910;2024-01-30T01:19:00;6.10;99.50
31653;DHT22;18261;53.648;9.910;2024-01-30T01:21:26;6.20;98.50
31653;DHT22;18261;53.648;9.910;2024-01-30T01:23:51;6.10;99.00
31653;DHT22;18261;53.648;9.910;2024-01-30T01:26:17;6.10;98.80
31653;DHT22;18261;53.648;9.910;2024-01-30T01:28:43;6.10;98.50
31653;DHT22;18261;53.648;9.910;2024-01-30T01:31:09;6.10;98.80
31653;DHT22;18261;53.648;9.910;2024-01-30T01:33:34;6.00;98.80
31653;DHT22;18261;53.648;9.910;2024-01-30T01:36:02;6.00;98.90
31653;DHT22;18261;53.648;9.910;2024-01-30T01:38:28;6.00;99.00
31653;DHT22;18261;53.648;9.910;2024-01-30T01:40:54;6.00;99.90
31653;DHT22;18261;53.648;9.910;2024-01-30T01:43:19;6.00;99.90
31653;DHT22;18261;53.648;9.910;2024-01-30T01:45:45;5.90;99.90
31653;DHT22;18261;53.648;9.910;2024-01-30T01:48:11;6.00;99.90
31653;DHT22;18261;53.648;9.910;2024-01-30T01:50:38;5.90;99.90
31653;DHT22;18261;53.648;9.910;2024-01-30T01:53:06;5.90;99.90
31653;DHT22;18261;53.648;9.910;2024-01-30T01:55:33;5.90;99.90
31653;DHT22;18261;53.648;9.910;2024-01-30T01:57:59;5.90;99.90
31653;DHT22;18261;53.648;9.910;2024-01-30T02:00:25;5.90;99.90
31653;DHT22;18261;53.648;9.910;2024-01-30T02:02:51;5.90;99.90
31653;DHT22;18261;53.648;9.910;2024-01-30T02:05:19;5.90;99.90
31653;DHT22;18261;53.648;9.910;2024-01-30T02:07:46;5.90;99.90
31653;DHT22;18261;53.648;9.910;2024-01-30T02:10:12;5.90;99.90
31653;DHT22;18261;53.648;9.910;2024-01-30T02:12:38;5.90;99.90
31653;DHT22;18261;53.648;9.910;2024-01-30T02:15:04;5.80;99.90
31653;DHT22;18261;53.648;9.910;2024-01-30T02:17:30;5.90;99.90
31653;DHT22;18261;53.648;9.910;2024-01-30T02:19:56;5.90;99.90
31653;DHT22;18261;53.648;9.910;2024-01-30T02:22:22;5.90;99.90
31653;DHT22;18261;53.648;9.910;2024-01-30T02:24:49;5.90;99.90
31653;DHT22;18261;53.648;9.910;2024-01-30T02:27:14;5.90;99.90
31653;DHT22;18261;53.648;9.910;2024-01-30T02:29:40;5.90;99.90
31653;DHT22;18261;53.648;9.910;2024-01-30T02:32:06;5.90;99.90
31653;DHT22;18261;53.648;9.910;2024-01-30T02:34:33;5.90;99.90
31653;DHT22;18261;53.648;9.910;2024-01-30T02:36:59;6.10;99.90
31653;DHT22;18261;53.648;9.910;2024-01-30T02:39:24;6.00;99.90
31653;DHT22;18261;53.648;9.910;2024-01-30T02:41:50;6.00;99.90
31653;DHT22;18261;53.648;9.910;2024-01-30T02:44:16;6.00;99.90
31653;DHT22;18261;53.648;9.910;2024-01-30T02:46:41;6.00;99.90
31653;DHT22;18261;53.648;9.910;2024-01-30T02:49:07;6.10;99.90
31653;DHT22;18261;53.648;9.910;2024-01-30T02:51:32;6.00;99.90
31653;DHT22;18261;53.648;9.910;2024-01-30T02:53:58;6.10;99.90
31653;DHT22;18261;53.648;9.910;2024-01-30T02:56:23;6.00;99.90
31653;DHT22;18261;53.648;9.910;2024-01-30T02:58:49;6.00;99.90
31653;DHT22;18261;53.648;9.910;2024-01-30T03:01:15;6.00;99.90
31653;DHT22;18261;53.648;9.910;2024-01-30T03:03:40;6.00;99.90
31653;DHT22;18261;53.648;9.910;2024-01-30T03:06:06;6.00;99.90
31653;DHT22;18261;53.648;9.910;2024-01-30T03:08:32;6.00;99.90
31653;DHT22;18261;53.648;9.910;2024-01-30T03:11:00;6.00;99.90
31653;DHT22;18261;53.648;9.910;2024-01-30T03:13:25;6.00;99.90
31653;DHT22;18261;53.648;9.910;2024-01-30T03:15:51;5.90;99.90
31653;DHT22;18261;53.648;9.910;2024-01-30T03:18:17;5.90;99.90
31653;DHT22;18261;53.648;9.910;2024-01-30T03:20:43;5.90;99.90
31653;DHT22;18261;53.648;9.910;2024-01-30T03:23:09;5.80;99.90
31653;DHT22;18261;53.648;9.910;2024-01-30T03:25:34;5.80;99.90
31653;DHT22;18261;53.648;9.910;2024-01-30T03:28:00;5.80;99.90
31653;DHT22;18261;53.648;9.910;2024-01-30T03:30:25;5.80;99.90
31653;DHT22;18261;53.648;9.910;2024-01-30T03:32:51;5.80;99.90
31653;DHT22;18261;53.648;9.910;2024-01-30T03:35:18;5.80;99.90
31653;DHT22;18261;53.648;9.910;2024-01-30T03:37:44;5.80;99.90
31653;DHT22;18261;53.648;9.910;2024-01-30T03:40:10;5.80;99.90
31653;DHT22;18261;53.648;9.910;2024-01-30T03:42:35;5.80;99.90
31653;DHT22;18261;53.648;9.910;2024-01-30T03:45:01;5.70;99.90
31653;DHT22;18261;53.648;9.910;2024-01-30T03:47:27;5.70;99.90
31653;DHT22;18261;53.648;9.910;2024-01-30T03:49:53;5.60;99.90
31653;DHT22;18261;53.648;9.910;2024-01-30T03:52:19;5.60;99.90
31653;DHT22;18261;53.648;9.910;2024-01-30T03:54:44;5.50;99.90
31653;DHT22;18261;53.648;9.910;2024-01-30T03:57:10;5.50;99.90
31653;DHT22;18261;53.648;9.910;2024-01-30T03:59:37;5.50;99.90
31653;DHT22;18261;53.648;9.910;2024-01-30T04:02:03;5.40;99.90
31653;DHT22;18261;53.648;9.910;2024-01-30T04:04:29;5.40;99.90
31653;DHT22;18261;53.648;9.910;2024-01-30T04:06:55;5.40;99.90
31653;DHT22;18261;53.648;9.910;2024-01-30T04:09:20;5.40;99.90
31653;DHT22;18261;53.648;9.910;2024-01-30T04:11:46;5.40;99.90
31653;DHT22;18261;53.648;9.910;2024-01-30T04:14:12;5.40;99.90
31653;DHT22;18261;53.648;9.910;2024-01-30T04:16:37;5.50;99.90
31653;DHT22;18261;53.648;9.910;2024-01-30T04:19:03;5.50;99.90
31653;DHT22;18261;53.648;9.910;2024-01-30T04:21:28;5.40;99.90
31653;DHT22;18261;53.648;9.910;2024-01-30T04:23:54;5.40;99.90
31653;DHT22;18261;53.648;9.910;2024-01-30T04:26:19;5.40;99.90
31653;DHT22;18261;53.648;9.910;2024-01-30T04:28:45;5.40;99.90
31653;DHT22;18261;53.648;9.910;2024-01-30T04:31:11;5.30;99.90
31653;DHT22;18261;53.648;9.910;2024-01-30T04:33:37;5.20;99.90
31653;DHT22;18261;53.648;9.910;2024-01-30T04:36:07;5.20;99.90
31653;DHT22;18261;53.648;9.910;2024-01-30T04:38:34;5.10;99.90
31653;DHT22;18261;53.648;9.910;2024-01-30T04:40:59;5.20;99.90
31653;DHT22;18261;53.648;9.910;2024-01-30T04:43:25;5.10;99.90
31653;DHT22;18261;53.648;9.910;2024-01-30T04:45:51;5.10;99.90
31653;DHT22;18261;53.648;9.910;2024-01-30T04:48:17;5.10;99.90
31653;DHT22;18261;53.648;9.910;2024-01-30T04:50:42;5.00;99.90
31653;DHT22;18261;53.648;9.910;2024-01-30T04:53:08;5.00;99.90
31653;DHT22;18261;53.648;9.910;2024-01-30T04:55:35;5.00;99.90
31653;DHT22;18261;53.648;9.910;2024-01-30T04:58:01;5.00;99.90
31653;DHT22;18261;53.648;9.910;2024-01-30T05:00:27;5.00;99.90
31653;DHT22;18261;53.648;9.910;2024-01-30T05:02:54;5.00;99.90
31653;DHT22;18261;53.648;9.910;2024-01-30T05:05:20;5.10;99.90
31653;DHT22;18261;53.648;9.910;2024-01-30T05:07:47;5.10;99.90
31653;DHT22;18261;53.648;9.910;2024-01-30T05:10:13;5.10;99.90
31653;DHT22;18261;53.648;9.910;2024-01-30T05:12:39;5.10;99.90
31653;DHT22;18261;53.648;9.910;2024-01-30T05:15:05;5.10;99.90
31653;DHT22;18261;53.648;9.910;2024-01-30T05:17:30;5.20;99.90
31653;DHT22;18261;53.648;9.910;2024-01-30T05:19:56;5.20;99.90
31653;DHT22;18261;53.648;9.910;2024-01-30T05:22:21;5.20;99.90
31653;DHT22;18261;53.648;9.910;2024-01-30T05:24:47;5.20;99.90
31653;DHT22;18261;53.648;9.910;2024-01-30T05:27:12;5.30;99.90
31653;DHT22;18261;53.648;9.910;2024-01-30T05:29:41;5.20;99.90
31653;DHT22;18261;53.648;9.910;2024-01-30T05:32:07;5.30;99.90
31653;DHT22;18261;53.648;9.910;2024-01-30T05:34:33;5.30;99.90
31653;DHT22;18261;53.648;9.910;2024-01-30T05:36:58;5.30;99.90
31653;DHT22;18261;53.648;9.910;2024-01-30T05:39:24;5.30;99.90
31653;DHT22;18261;53.648;9.910;2024-01-30T05:41:49;5.40;99.90
31653;DHT22;18261;53.648;9.910;2024-01-30T05:44:15;5.40;99.90
31653;DHT22;18261;53.648;9.910;2024-01-30T05:46:41;5.50;99.90
31653;DHT22;18261;53.648;9.910;2024-01-30T05:49:07;5.60;99.90
31653;DHT22;18261;53.648;9.910;2024-01-30T05:51:32;5.60;99.90
31653;DHT22;18261;53.648;9.910;2024-01-30T05:53:58;5.60;99.90
31653;DHT22;18261;53.648;9.910;2024-01-30T05:56:24;5.60;99.90
31653;DHT22;18261;53.648;9.910;2024-01-30T05:58:49;5.60;99.90
31653;DHT22;18261;53.648;9.910;2024-01-30T06:01:18;5.60;99.90
31653;DHT22;18261;53.648;9.910;2024-01-30T06:03:43;5.70;99.90
31653;DHT22;18261;53.648;9.910;2024-01-30T06:06:09;5.70;99.90
31653;DHT22;18261;53.648;9.910;2024-01-30T06:08:35;5.70;99.90
31653;DHT22;18261;53.648;9.910;2024-01-30T06:11:00;5.80;99.90
31653;DHT22;18261;53.648;9.910;2024-01-30T06:13:26;5.80;99.90
31653;DHT22;18261;53.648;9.910;2024-01-30T06:15:52;5.80;99.90
31653;DHT22;18261;53.648;9.910;2024-01-30T06:18:18;5.90;99.90
31653;DHT22;18261;53.648;9.910;2024-01-30T06:20:43;5.90;99.90
31653;DHT22;18261;53.648;9.910;2024-01-30T06:23:09;6.10;99.90
31653;DHT22;18261;53.648;9.910;2024-01-30T06:25:35;6.00;99.90
31653;DHT22;18261;53.648;9.910;2024-01-30T06:28:01;6.10;99.90
31653;DHT22;18261;53.648;9.910;2024-01-30T06:30:26;6.10;99.90
31653;DHT22;18261;53.648;9.910;2024-01-30T06:32:52;6.10;99.90
31653;DHT22;18261;53.648;9.910;2024-01-30T06:35:18;6.10;99.90
31653;DHT22;18261;53.648;9.910;2024-01-30T06:37:43;6.10;99.90
31653;DHT22;18261;53.648;9.910;2024-01-30T06:40:09;6.20;99.90
31653;DHT22;18261;53.648;9.910;2024-01-30T06:42:35;6.20;99.90
31653;DHT22;18261;53.648;9.910;2024-01-30T06:45:00;6.10;99.90
31653;DHT22;18261;53.648;9.910;2024-01-30T06:47:26;6.30;99.90
31653;DHT22;18261;53.648;9.910;2024-01-30T06:49:52;6.30;99.90
31653;DHT22;18261;53.648;9.910;2024-01-30T06:52:17;6.20;99.90
31653;DHT22;18261;53.648;9.910;2024-01-30T06:54:43;6.40;99.90
31653;DHT22;18261;53.648;9.910;2024-01-30T06:57:08;6.40;99.90
31653;DHT22;18261;53.648;9.910;2024-01-30T06:59:37;6.40;99.90
31653;DHT22;18261;53.648;9.910;2024-01-30T07:02:09;6.40;99.90
31653;DHT22;18261;53.648;9.910;2024-01-30T07:04:34;6.40;99.90
31653;DHT22;18261;53.648;9.910;2024-01-30T07:07:00;6.40;99.90
31653;DHT22;18261;53.648;9.910;2024-01-30T07:09:26;6.40;99.90
31653;DHT22;18261;53.648;9.910;2024-01-30T07:11:53;6.40;99.90
31653;DHT22;18261;53.648;9.910;2024-01-30T07:14:18;6.30;99.90
31653;DHT22;18261;53.648;9.910;2024-01-30T07:16:44;6.30;99.90
31653;DHT22;18261;53.648;9.910;2024-01-30T07:19:10;6.30;99.90
31653;DHT22;18261;53.648;9.910;2024-01-30T07:21:35;6.30;99.90
31653;DHT22;18261;53.648;9.910;2024-01-30T07:24:01;6.30;99.90
31653;DHT22;18261;53.648;9.910;2024-01-30T07:26:26;6.30;99.90
31653;DHT22;18261;53.648;9.910;2024-01-30T07:28:52;6.30;99.90
31653;DHT22;18261;53.648;9.910;2024-01-30T07:31:17;6.30;99.90
31653;DHT22;18261;53.648;9.910;2024-01-30T07:33:46;6.40;99.90
31653;DHT22;18261;53.648;9.910;2024-01-30T07:36:11;6.70;99.90
31653;DHT22;18261;53.648;9.910;2024-01-30T07:38:37;7.00;99.90
31653;DHT22;18261;53.648;9.910;2024-01-30T07:41:03;7.20;99.90
31653;DHT22;18261;53.648;9.910;2024-01-30T07:43:28;7.40;99.90
31653;DHT22;18261;53.648;9.910;2024-01-30T07:45:54;7.40;99.90
31653;DHT22;18261;53.648;9.910;2024-01-30T07:48:19;7.50;99.90
31653;DHT22;18261;53.648;9.910;2024-01-30T07:50:45;7.70;99.90
31653;DHT22;18261;53.648;9.910;2024-01-30T07:53:11;7.80;99.90
31653;DHT22;18261;53.648;9.910;2024-01-30T07:55:36;7.80;99.90
31653;DHT22;18261;53.648;9.910;2024-01-30T08:01:27;7.90;99.90
31653;DHT22;18261;53.648;9.910;2024-01-30T08:03:53;8.00;99.60
31653;DHT22;18261;53.648;9.910;2024-01-30T08:06:18;7.90;97.10
31653;DHT22;18261;53.648;9.910;2024-01-30T08:08:45;7.80;95.40
31653;DHT22;18261;53.648;9.910;2024-01-30T08:11:10;7.90;97.00
31653;DHT22;18261;53.648;9.910;2024-01-30T08:13:36;7.80;98.00
31653;DHT22;18261;53.648;9.910;2024-01-30T08:16:01;7.70;99.10
31653;DHT22;18261;53.648;9.910;2024-01-30T08:18:27;7.70;99.40
31653;DHT22;18261;53.648;9.910;2024-01-30T08:20:52;7.70;99.90
31653;DHT22;18261;53.648;9.910;2024-01-30T08:23:18;7.60;99.90
31653;DHT22;18261;53.648;9.910;2024-01-30T08:25:44;7.60;99.90
31653;DHT22;18261;53.648;9.910;2024-01-30T08:28:09;7.60;99.90
31653;DHT22;18261;53.648;9.910;2024-01-30T08:30:35;7.50;99.90
31653;DHT22;18261;53.648;9.910;2024-01-30T08:33:01;7.70;99.90
31653;DHT22;18261;53.648;9.910;2024-01-30T08:35:26;7.80;99.90
31653;DHT22;18261;53.648;9.910;2024-01-30T08:37:52;7.90;99.90
31653;DHT22;18261;53.648;9.910;2024-01-30T08:40:19;7.90;99.60
31653;DHT22;18261;53.648;9.910;2024-01-30T08:42:45;8.00;99.70
31653;DHT22;18261;53.648;9.910;2024-01-30T08:45:11;8.20;99.70
31653;DHT22;18261;53.648;9.910;2024-01-30T08:47:36;8.20;98.80
31653;DHT22;18261;53.648;9.910;2024-01-30T08:50:02;8.30;97.10
31653;DHT22;18261;53.648;9.910;2024-01-30T08:52:28;8.30;96.40
31653;DHT22;18261;53.648;9.910;2024-01-30T08:54:53;8.30;97.00
31653;DHT22;18261;53.648;9.910;2024-01-30T08:57:19;8.30;97.20
31653;DHT22;18261;53.648;9.910;2024-01-30T08:59:45;8.40;98.60
31653;DHT22;18261;53.648;9.910;2024-01-30T09:02:12;8.60;96.10
31653;DHT22;18261;53.648;9.910;2024-01-30T09:04:38;8.80;94.70
31653;DHT22;18261;53.648;9.910;2024-01-30T09:07:04;9.00;91.70
31653;DHT22;18261;53.648;9.910;2024-01-30T09:09:34;9.10;90.90
31653;DHT22;18261;53.648;9.910;2024-01-30T09:11:59;9.10;88.30
31653;DHT22;18261;53.648;9.910;2024-01-30T09:14:29;9.20;83.20
31653;DHT22;18261;53.648;9.910;2024-01-30T09:16:56;9.30;79.80
31653;DHT22;18261;53.648;9.910;2024-01-30T09:19:21;9.30;81.20
31653;DHT22;18261;53.648;9.910;2024-01-30T09:21:47;9.40;81.40
31653;DHT22;18261;53.648;9.910;2024-01-30T09:24:12;9.40;84.40
31653;DHT22;18261;53.648;9.910;2024-01-30T09:26:38;9.50;82.30
31653;DHT22;18261;53.648;9.910;2024-01-30T09:29:04;9.80;73.10
31653;DHT22;18261;53.648;9.910;2024-01-30T09:31:29;9.90;63.80
31653;DHT22;18261;53.648;9.910;2024-01-30T09:33:55;10.00;65.80
31653;DHT22;18261;53.648;9.910;2024-01-30T09:36:21;10.10;60.30
31653;DHT22;18261;53.648;9.910;2024-01-30T09:38:47;10.20;54.20
31653;DHT22;18261;53.648;9.910;2024-01-30T09:41:13;10.00;41.80
31653;DHT22;18261;53.648;9.910;2024-01-30T09:43:39;9.90;55.80
31653;DHT22;18261;53.648;9.910;2024-01-30T09:46:05;10.00;53.30
31653;DHT22;18261;53.648;9.910;2024-01-30T09:48:33;10.00;48.50
31653;DHT22;18261;53.648;9.910;2024-01-30T09:50:59;10.10;57.30
31653;DHT22;18261;53.648;9.910;2024-01-30T09:53:25;10.10;52.70
31653;DHT22;18261;53.648;9.910;2024-01-30T09:55:51;10.20;53.50
31653;DHT22;18261;53.648;9.910;2024-01-30T09:58:17;10.40;45.60
31653;DHT22;18261;53.648;9.910;2024-01-30T10:00:43;10.40;45.70
31653;DHT22;18261;53.648;9.910;2024-01-30T10:03:09;10.60;40.30
31653;DHT22;18261;53.648;9.910;2024-01-30T10:05:36;10.80;25.50
31653;DHT22;18261;53.648;9.910;2024-01-30T10:08:06;10.80;19.50
31653;DHT22;18261;53.648;9.910;2024-01-30T10:10:33;10.90;14.90
31653;DHT22;18261;53.648;9.910;2024-01-30T10:13:00;11.00;17.20
31653;DHT22;18261;53.648;9.910;2024-01-30T10:15:26;11.00;9.50
31653;DHT22;18261;53.648;9.910;2024-01-30T10:17:53;10.90;17.70
31653;DHT22;18261;53.648;9.910;2024-01-30T10:20:18;10.80;14.80
31653;DHT22;18261;53.648;9.910;2024-01-30T10:22:45;10.60;41.80
31653;DHT22;18261;53.648;9.910;2024-01-30T10:25:11;10.70;35.70
31653;DHT22;18261;53.648;9.910;2024-01-30T10:27:39;10.80;37.40
31653;DHT22;18261;53.648;9.910;2024-01-30T10:30:05;10.80;25.40
31653;DHT22;18261;53.648;9.910;2024-01-30T10:32:31;10.80;32.60
31653;DHT22;18261;53.648;9.910;2024-01-30T10:34:56;10.60;41.30
31653;DHT22;18261;53.648;9.910;2024-01-30T10:37:25;10.70;45.10
31653;DHT22;18261;53.648;9.910;2024-01-30T10:39:53;10.70;45.80
31653;DHT22;18261;53.648;9.910;2024-01-30T10:42:26;10.80;37.20
31653;DHT22;18261;53.648;9.910;2024-01-30T10:45:11;10.80;39.60
31653;DHT22;18261;53.648;9.910;2024-01-30T10:47:48;10.90;45.20
31653;DHT22;18261;53.648;9.910;2024-01-30T10:50:15;10.90;39.20
31653;DHT22;18261;53.648;9.910;2024-01-30T10:52:41;11.00;38.90
31653;DHT22;18261;53.648;9.910;2024-01-30T10:55:07;11.00;33.10
31653;DHT22;18261;53.648;9.910;2024-01-30T10:57:37;11.00;39.60
31653;DHT22;18261;53.648;9.910;2024-01-30T11:00:08;11.10;41.00
31653;DHT22;18261;53.648;9.910;2024-01-30T11:02:42;11.20;41.80
31653;DHT22;18261;53.648;9.910;2024-01-30T11:05:09;11.40;32.10
31653;DHT22;18261;53.648;9.910;2024-01-30T11:07:35;11.40;28.70
31653;DHT22;18261;53.648;9.910;2024-01-30T11:10:04;11.40;31.60
31653;DHT22;18261;53.648;9.910;2024-01-30T11:12:33;11.30;34.70
31653;DHT22;18261;53.648;9.910;2024-01-30T11:15:07;11.20;40.80
31653;DHT22;18261;53.648;9.910;2024-01-30T11:18:05;11.10;49.20
31653;DHT22;18261;53.648;9.910;2024-01-30T11:20:32;11.20;46.40
31653;DHT22;18261;53.648;9.910;2024-01-30T11:22:58;11.20;47.50
31653;DHT22;18261;53.648;9.910;2024-01-30T11:25:25;11.10;48.50
31653;DHT22;18261;53.648;9.910;2024-01-30T11:27:52;11.20;50.10
31653;DHT22;18261;53.648;9.910;2024-01-30T11:30:26;11.00;54.10
31653;DHT22;18261;53.648;9.910;2024-01-30T11:35:33;11.00;61.10
31653;DHT22;18261;53.648;9.910;2024-01-30T11:38:00;11.00;63.20
31653;DHT22;18261;53.648;9.910;2024-01-30T11:40:30;11.00;62.50
31653;DHT22;18261;53.648;9.910;2024-01-30T11:42:57;11.10;60.80
31653;DHT22;18261;53.648;9.910;2024-01-30T11:45:23;11.00;62.30
31653;DHT22;18261;53.648;9.910;2024-01-30T11:47:49;10.90;68.70
31653;DHT22;18261;53.648;9.910;2024-01-30T11:50:15;10.90;70.30
31653;DHT22;18261;53.648;9.910;2024-01-30T11:52:41;10.90;69.60
31653;DHT22;18261;53.648;9.910;2024-01-30T11:55:08;11.00;68.60
31653;DHT22;18261;53.648;9.910;2024-01-30T11:57:34;11.00;72.20
31653;DHT22;18261;53.648;9.910;2024-01-30T12:00:01;10.90;69.50
31653;DHT22;18261;53.648;9.910;2024-01-30T12:02:29;10.90;75.70
31653;DHT22;18261;53.648;9.910;2024-01-30T12:04:55;10.90;72.40
31653;DHT22;18261;53.648;9.910;2024-01-30T12:07:20;10.90;75.00
31653;DHT22;18261;53.648;9.910;2024-01-30T12:09:53;10.80;77.00
31653;DHT22;18261;53.648;9.910;2024-01-30T12:12:24;10.90;80.10
31653;DHT22;18261;53.648;9.910;2024-01-30T12:14:50;10.90;77.80
31653;DHT22;18261;53.648;9.910;2024-01-30T12:17:30;10.90;74.80
31653;DHT22;18261;53.648;9.910;2024-01-30T12:20:13;10.90;80.40
31653;DHT22;18261;53.648;9.910;2024-01-30T12:22:46;10.80;81.80
31653;DHT22;18261;53.648;9.910;2024-01-30T12:25:17;10.80;80.10
31653;DHT22;18261;53.648;9.910;2024-01-30T12:27:45;10.80;84.20
31653;DHT22;18261;53.648;9.910;2024-01-30T12:30:13;10.80;83.10
31653;DHT22;18261;53.648;9.910;2024-01-30T12:32:40;10.80;83.90
31653;DHT22;18261;53.648;9.910;2024-01-30T12:35:12;10.80;84.10
31653;DHT22;18261;53.648;9.910;2024-01-30T12:37:38;10.90;83.10
31653;DHT22;18261;53.648;9.910;2024-01-30T12:40:04;10.90;82.80
31653;DHT22;18261;53.648;9.910;2024-01-30T12:42:31;10.90;83.60
31653;DHT22;18261;53.648;9.910;2024-01-30T12:45:00;10.90;85.60
31653;DHT22;18261;53.648;9.910;2024-01-30T12:47:27;10.90;83.00
31653;DHT22;18261;53.648;9.910;2024-01-30T12:49:52;10.90;85.10
31653;DHT22;18261;53.648;9.910;2024-01-30T12:52:21;10.90;86.20
31653;DHT22;18261;53.648;9.910;2024-01-30T12:54:48;10.80;87.10
31653;DHT22;18261;53.648;9.910;2024-01-30T12:57:14;10.80;89.20
31653;DHT22;18261;53.648;9.910;2024-01-30T12:59:39;10.90;86.90
31653;DHT22;18261;53.648;9.910;2024-01-30T13:02:05;10.90;87.80
31653;DHT22;18261;53.648;9.910;2024-01-30T13:04:32;10.90;90.00
31653;DHT22;18261;53.648;9.910;2024-01-30T13:06:58;10.90;89.00
31653;DHT22;18261;53.648;9.910;2024-01-30T13:09:23;10.90;91.10
31653;DHT22;18261;53.648;9.910;2024-01-30T13:11:50;10.80;90.80
31653;DHT22;18261;53.648;9.910;2024-01-30T13:14:16;10.90;90.00
31653;DHT22;18261;53.648;9.910;2024-01-30T13:16:42;10.90;92.20
31653;DHT22;18261;53.648;9.910;2024-01-30T13:19:08;10.90;92.20
31653;DHT22;18261;53.648;9.910;2024-01-30T13:21:33;10.80;92.70
31653;DHT22;18261;53.648;9.910;2024-01-30T13:23:59;10.80;93.30
31653;DHT22;18261;53.648;9.910;2024-01-30T13:26:25;10.80;93.40
31653;DHT22;18261;53.648;9.910;2024-01-30T13:28:51;10.80;93.30
31653;DHT22;18261;53.648;9.910;2024-01-30T13:31:17;10.80;94.30
31653;DHT22;18261;53.648;9.910;2024-01-30T13:33:42;10.80;94.70
31653;DHT22;18261;53.648;9.910;2024-01-30T13:36:10;10.80;95.30
31653;DHT22;18261;53.648;9.910;2024-01-30T13:38:35;10.80;95.20
31653;DHT22;18261;53.648;9.910;2024-01-30T13:41:01;10.80;96.40
31653;DHT22;18261;53.648;9.910;2024-01-30T13:43:28;10.80;96.60
31653;DHT22;18261;53.648;9.910;2024-01-30T13:45:53;10.80;95.60
31653;DHT22;18261;53.648;9.910;2024-01-30T13:48:19;10.80;97.00
31653;DHT22;18261;53.648;9.910;2024-01-30T13:50:45;10.80;96.90
31653;DHT22;18261;53.648;9.910;2024-01-30T13:53:11;10.80;97.10
31653;DHT22;18261;53.648;9.910;2024-01-30T13:55:37;10.80;97.40
31653;DHT22;18261;53.648;9.910;2024-01-30T13:58:04;10.80;97.50
31653;DHT22;18261;53.648;9.910;2024-01-30T14:00:30;10.80;98.90
31653;DHT22;18261;53.648;9.910;2024-01-30T14:02:55;10.80;98.60
31653;DHT22;18261;53.648;9.910;2024-01-30T14:05:23;10.80;99.60
31653;DHT22;18261;53.648;9.910;2024-01-30T14:07:49;10.80;99.60
31653;DHT22;18261;53.648;9.910;2024-01-30T14:10:15;10.80;99.40
31653;DHT22;18261;53.648;9.910;2024-01-30T14:12:42;10.90;99.90
31653;DHT22;18261;53.648;9.910;2024-01-30T14:15:09;10.90;99.00
31653;DHT22;18261;53.648;9.910;2024-01-30T14:17:35;11.00;98.90
31653;DHT22;18261;53.648;9.910;2024-01-30T14:20:02;10.90;99.10
31653;DHT22;18261;53.648;9.910;2024-01-30T14:22:28;10.90;99.60
31653;DHT22;18261;53.648;9.910;2024-01-30T14:24:54;10.90;99.90
31653;DHT22;18261;53.648;9.910;2024-01-30T14:27:21;10.90;99.90
31653;DHT22;18261;53.648;9.910;2024-01-30T14:29:47;10.90;99.90
31653;DHT22;18261;53.648;9.910;2024-01-30T14:32:13;10.90;99.90
31653;DHT22;18261;53.648;9.910;2024-01-30T14:34:38;11.00;99.90
31653;DHT22;18261;53.648;9.910;2024-01-30T14:37:04;10.90;99.90
31653;DHT22;18261;53.648;9.910;2024-01-30T14:39:30;10.90;99.90
31653;DHT22;18261;53.648;9.910;2024-01-30T14:41:56;11.00;99.90
31653;DHT22;18261;53.648;9.910;2024-01-30T14:44:21;10.90;99.90
31653;DHT22;18261;53.648;9.910;2024-01-30T14:46:48;10.90;99.90
31653;DHT22;18261;53.648;9.910;2024-01-30T14:49:14;10.90;99.90
31653;DHT22;18261;53.648;9.910;2024-01-30T14:51:41;10.90;99.90
31653;DHT22;18261;53.648;9.910;2024-01-30T14:54:06;11.00;99.90
31653;DHT22;18261;53.648;9.910;2024-01-30T14:56:32;11.00;99.90
31653;DHT22;18261;53.648;9.910;2024-01-30T14:58:58;11.00;99.90
31653;DHT22;18261;53.648;9.910;2024-01-30T15:01:24;11.00;99.90
31653;DHT22;18261;53.648;9.910;2024-01-30T15:03:50;11.00;99.90
31653;DHT22;18261;53.648;9.910;2024-01-30T15:06:17;11.00;99.90
31653;DHT22;18261;53.648;9.910;2024-01-30T15:08:43;11.10;99.90
31653;DHT22;18261;53.648;9.910;2024-01-30T15:11:08;11.10;99.90
31653;DHT22;18261;53.648;9.910;2024-01-30T15:13:34;11.10;99.90
31653;DHT22;18261;53.648;9.910;2024-01-30T15:16:00;11.10;99.90
31653;DHT22;18261;53.648;9.910;2024-01-30T15:18:28;11.10;99.90
31653;DHT22;18261;53.648;9.910;2024-01-30T15:20:54;11.10;99.90
31653;DHT22;18261;53.648;9.910;2024-01-30T15:23:19;11.20;99.90
31653;DHT22;18261;53.648;9.910;2024-01-30T15:25:45;11.20;99.90
31653;DHT22;18261;53.648;9.910;2024-01-30T15:28:10;11.20;99.90
31653;DHT22;18261;53.648;9.910;2024-01-30T15:30:36;11.20;99.90
31653;DHT22;18261;53.648;9.910;2024-01-30T15:33:02;11.10;99.90
31653;DHT22;18261;53.648;9.910;2024-01-30T15:35:27;11.10;99.90
31653;DHT22;18261;53.648;9.910;2024-01-30T15:37:53;11.10;99.90
31653;DHT22;18261;53.648;9.910;2024-01-30T15:40:19;11.20;99.90